Time;durP1;ratioP1;P1;durP2;ratioP2;P2;SDS_P1;SDS_P2;PMS_P1;PMS_P2;Temp;Humidity;BMP_temperature;BMP_pressure;BME280_temperature;BME280_humidity;BME280_pressure;Samples;Min_cycle;Max_cycle;Signal;HPM_P1;HPM_P2
2021/03/18 00:01:21;;;;;;;;;;;;;;;4.74;83.61;102038.44;4801861;29;19924;-78
2021/03/18 00:14:21;;;;;;;;;;;;;;;4.53;83.54;102047.81;4834031;29;19923;-77
2021/03/18 00:17:42;;;;;;;;;;;;;;;;;;;;;
2021/03/18 00:20:39;;;;;;;;;;;;;;;;;;;;;
2021/03/18 00:23:50;;;;;;;;;;;;;;;4.45;83.37;102039.78;4828189;29;19927;-77
2021/03/18 00:30:20;;;;;;;;;;;;;;;4.27;83.65;102029.47;4870937;29;19923;-77
2021/03/18 00:47:53;;;;;;;;;;;;;;;;;;;;;
2021/03/18 00:50:51;;;;;;;;;;;;;;;4.02;83.22;102018.31;4875664;29;19936;-77
2021/03/18 01:02:03;;;;;;;;;;;;;;;3.89;83.26;102016.41;4800583;29;19963;-78
2021/03/18 01:06:19;;;;;;;;;;;;;;;;;;;;;
2021/03/18 01:12:25;;;;;;;;;;;;;;;3.80;83.48;102029.53;4796117;29;19956;-77
2021/03/18 01:15:39;;;;;;;;;;;;;;;;;;;;;
2021/03/18 01:50:59;;;;;;;;;;;;;;;;;;;;;
2021/03/18 01:54:04;;;;;;;;;;;;;;;3.42;83.48;102003.75;4838007;29;19971;-77
2021/03/18 02:33:43;;;;;;;;;;;;;;;;;;;;;
2021/03/18 02:37:19;;;;;;;;;;;;;;;;;;;;;
2021/03/18 02:44:55;;;;;;;;;;;;;;;;;;;;;
2021/03/18 05:16:53;;;;;;;;;;;;;;;2.51;89.24;101899.91;6012781;23;19914;-75
2021/03/18 05:23:17;;;;;;;;;;;;;;;2.57;87.80;101899.94;5895138;24;19926;-75
2021/03/18 05:30:02;;;;;;;;;;;;;;;2.62;87.35;101891.09;5841460;24;20024;-75
2021/03/18 05:33:26;;;;;;;;;;;;;;;2.64;86.98;101888.97;5835138;24;19912;-75
2021/03/18 05:36:32;;;;;;;;;;;;;;;2.65;87.16;101890.69;5836873;24;19939;-75
2021/03/18 05:42:51;;;;;;;;;;;;;;;2.65;87.06;101882.47;5967091;24;20468;-75
2021/03/18 05:46:13;;;;;;;;;;;;;;;2.57;87.14;101888.97;5923887;24;19921;-75
2021/03/18 05:48:52;;;;;;;;;;;;;;;2.55;87.17;101884.75;5963072;24;19994;-75
2021/03/18 05:58:27;;;;;;;;;;;;;;;2.40;89.55;101872.06;6156763;23;19923;-75
2021/03/18 06:01:22;;;;;;;;;;;;;;;2.39;89.54;101875.00;6140022;23;19920;-75
2021/03/18 06:04:37;;;;;;;;;;;;;;;;;;;;;
2021/03/18 06:07:16;;;;;;;;;;;;;;;2.42;88.74;101880.94;6156731;23;19909;-75
2021/03/18 06:09:45;;;;;;;;;;;;;;;2.45;88.35;101882.38;6147704;23;20043;-75
2021/03/18 06:12:33;;;;;;;;;;;;;;;2.46;88.61;101879.44;6182882;23;19911;-74
2021/03/18 06:15:04;;;;;;;;;;;;;;;2.49;88.52;101880.94;6142781;23;19919;-74
2021/03/18 06:17:33;;;;;;;;;;;;;;;2.45;88.67;101880.50;6166419;23;19912;-75
2021/03/18 06:20:14;;;;;;;;;;;;;;;2.45;89.22;101879.63;6169552;23;19916;-74
2021/03/18 06:23:14;;;;;;;;;;;;;;;2.47;88.94;101888.50;6198156;23;19931;-74
2021/03/18 06:25:52;;;;;;;;;;;;;;;2.47;89.14;101888.50;6145521;23;19912;-75
2021/03/18 06:28:30;;;;;;;;;;;;;;;2.44;89.07;101892.50;6143028;23;20284;-75
2021/03/18 06:31:00;;;;;;;;;;;;;;;2.47;89.21;101897.59;6165562;23;19923;-75
2021/03/18 06:33:46;;;;;;;;;;;;;;;2.49;89.27;101902.88;6191041;23;19915;-75
2021/03/18 06:36:35;;;;;;;;;;;;;;;2.56;88.90;101898.22;6144766;23;20357;-74
2021/03/18 06:39:34;;;;;;;;;;;;;;;2.51;89.74;101906.25;6196216;23;19923;-74
2021/03/18 06:42:12;;;;;;;;;;;;;;;2.58;89.67;101906.28;6194810;23;20404;-74
2021/03/18 06:44:43;;;;;;;;;;;;;;;2.57;90.30;101908.16;6198320;23;19914;-74
2021/03/18 06:47:13;;;;;;;;;;;;;;;2.64;89.53;101906.28;6222851;23;19908;-75
2021/03/18 06:49:38;;;;;;;;;;;;;;;2.64;89.51;101911.75;6223432;23;19911;-75
2021/03/18 06:52:11;;;;;;;;;;;;;;;2.67;91.40;101924.22;6196605;23;19918;-75
2021/03/18 06:54:48;;;;;;;;;;;;;;;2.72;92.34;101923.59;6199418;23;19962;-76
2021/03/18 06:57:19;;;;;;;;;;;;;;;2.74;92.52;101927.00;6198099;23;20237;-76
2021/03/18 06:59:45;;;;;;;;;;;;;;;2.75;91.55;101924.03;6197202;23;19922;-75
2021/03/18 07:02:22;;;;;;;;;;;;;;;2.76;92.29;101923.00;6222319;23;19914;-75
2021/03/18 07:04:55;;;;;;;;;;;;;;;2.79;93.01;101930.81;6200536;23;19907;-75
2021/03/18 07:07:22;;;;;;;;;;;;;;;2.83;92.58;101937.56;6197756;23;19978;-75
2021/03/18 07:09:52;;;;;;;;;;;;;;;2.89;94.29;101933.13;6195934;23;19942;-74
2021/03/18 07:12:21;;;;;;;;;;;;;;;2.91;93.80;101934.63;6197922;23;20340;-74
2021/03/18 07:14:47;;;;;;;;;;;;;;;3.00;94.97;101926.19;6197846;23;19922;-74
2021/03/18 07:17:27;;;;;;;;;;;;;;;3.02;94.83;101919.44;6222703;23;20478;-75
2021/03/18 07:20:07;;;;;;;;;;;;;;;3.15;96.08;101910.38;6197891;23;19915;-74
2021/03/18 07:22:39;;;;;;;;;;;;;;;3.22;96.24;101902.97;6198079;23;19908;-75
2021/03/18 07:25:05;;;;;;;;;;;;;;;3.28;96.73;101893.88;6222231;23;19911;-75
2021/03/18 07:27:40;;;;;;;;;;;;;;;3.38;96.77;101889.88;6196522;23;19942;-75
2021/03/18 07:30:06;;;;;;;;;;;;;;;3.48;95.77;101895.78;6174104;23;19907;-75
2021/03/18 07:40:06;;;;;;;;;;;;;;;3.75;96.39;101875.44;6127575;23;19919;-74
2021/03/18 13:11:45;;;;;;;;;;;;;;;;;;;;;
2021/03/18 13:21:57;;;;;;;;;;;;;;;;;;;;;
2021/03/18 13:28:31;;;;;;;;;;;;;;;;;;;;;
2021/03/18 13:31:48;;;;;;;;;;;;;;;11.13;68.12;101630.75;5824499;24;19999;-76
2021/03/18 14:22:40;;;;;;;;;;;;;;;;;;;;;
2021/03/18 14:43:53;;;;;;;;;;;;;;;11.14;69.99;101551.78;4721848;27;12105675;-75
2021/03/18 14:46:24;;;;;;;;;;;;;;;11.07;70.18;101546.47;5105072;27;20011;-75
2021/03/18 14:48:52;;;;;;;;;;;;;;;11.08;70.16;101547.31;5107342;27;19912;-75
2021/03/18 14:51:23;;;;;;;;;;;;;;;11.04;70.42;101540.66;5145595;27;19915;-75
2021/03/18 14:53:51;;;;;;;;;;;;;;;11.08;69.96;101536.19;5104059;27;19911;-75
2021/03/18 14:56:23;;;;;;;;;;;;;;;10.95;70.00;101541.16;5100520;27;19915;-75
2021/03/18 15:02:08;;;;;;;;;;;;;;;10.87;70.53;101533.34;5130400;27;19919;-76
2021/03/18 15:05:00;;;;;;;;;;;;;;;10.80;69.69;101527.19;5121775;27;19912;-75
2021/03/18 15:11:21;;;;;;;;;;;;;;;10.74;70.54;101526.31;5044713;28;19913;-76
2021/03/18 15:13:58;;;;;;;;;;;;;;;10.65;70.68;101521.56;5031979;28;20344;-76
2021/03/18 15:17:31;;;;;;;;;;;;;;;10.63;71.15;101518.22;5026203;28;19914;-75
2021/03/18 15:20:01;;;;;;;;;;;;;;;10.59;71.67;101517.09;5019995;28;19940;-75
2021/03/18 15:29:28;;;;;;;;;;;;;;;10.52;71.68;101507.03;5034762;28;19972;-76
2021/03/18 15:39:20;;;;;;;;;;;;;;;10.49;72.58;101485.38;5004700;28;19978;-76
2021/03/18 15:50:09;;;;;;;;;;;;;;;10.44;72.59;101477.00;5070501;28;19923;-76
2021/03/18 15:53:21;;;;;;;;;;;;;;;10.42;73.35;101472.81;5095648;28;20384;-76
2021/03/18 15:56:39;;;;;;;;;;;;;;;;;;;;;
2021/03/18 16:00:10;;;;;;;;;;;;;;;10.41;72.85;101473.94;5097050;28;20113;-76
2021/03/18 16:09:43;;;;;;;;;;;;;;;10.26;76.22;101452.44;4988476;28;19924;-76
2021/03/18 16:16:26;;;;;;;;;;;;;;;;;;;;;
2021/03/18 16:19:32;;;;;;;;;;;;;;;10.02;77.05;101452.84;4995467;28;19981;-76
2021/03/18 16:22:54;;;;;;;;;;;;;;;;;;;;;
2021/03/18 16:30:11;;;;;;;;;;;;;;;9.56;75.02;101458.06;4975230;28;20073;-78
2021/03/18 16:32:50;;;;;;;;;;;;;;;9.45;75.34;101450.75;4939759;29;20009;-78
2021/03/18 16:56:47;;;;;;;;;;;;;;;;;;;;;
2021/03/18 17:00:18;;;;;;;;;;;;;;;;;;;;;
2021/03/18 17:15:36;;;;;;;;;;;;;;;;;;;;;
2021/03/18 17:21:47;;;;;;;;;;;;;;;8.76;77.19;101432.03;4884788;29;19933;-75
2021/03/18 17:24:37;;;;;;;;;;;;;;;8.71;77.20;101424.50;4897939;29;20439;-74
2021/03/18 17:27:53;;;;;;;;;;;;;;;8.61;77.37;101418.00;4910841;29;19923;-76
2021/03/18 17:31:20;;;;;;;;;;;;;;;8.53;77.91;101418.47;4914242;29;19919;-76
2021/03/18 17:37:54;;;;;;;;;;;;;;;;;;;;;
2021/03/18 17:41:00;;;;;;;;;;;;;;;8.36;79.43;101421.25;4883339;29;19919;-76
2021/03/18 17:44:24;;;;;;;;;;;;;;;8.34;79.61;101412.41;4870633;29;19923;-76
2021/03/18 17:47:13;;;;;;;;;;;;;;;8.31;79.88;101416.50;4944696;28;19968;-76
2021/03/18 17:49:51;;;;;;;;;;;;;;;8.33;79.99;101422.63;5014380;28;19964;-76
2021/03/18 17:52:17;;;;;;;;;;;;;;;8.30;80.10;101414.81;4970369;28;19917;-71
2021/03/18 17:54:42;;;;;;;;;;;;;;;8.28;80.55;101411.50;4980935;28;19924;-71
2021/03/18 17:57:07;;;;;;;;;;;;;;;8.21;80.70;101417.19;5065054;28;20426;-70
2021/03/18 17:59:33;;;;;;;;;;;;;;;8.23;80.59;101412.25;5086490;28;19946;-71
2021/03/18 18:01:58;;;;;;;;;;;;;;;8.19;80.82;101418.53;5082275;28;19928;-71
2021/03/18 18:04:23;;;;;;;;;;;;;;;8.15;81.04;101423.75;5093583;28;19919;-70
2021/03/18 18:06:50;;;;;;;;;;;;;;;8.14;81.00;101424.88;5074831;28;20289;-71
2021/03/18 18:09:15;;;;;;;;;;;;;;;8.04;81.79;101431.06;5072572;28;19916;-71
2021/03/18 18:11:41;;;;;;;;;;;;;;;8.05;81.75;101434.69;5059299;27;19912;-71
2021/03/18 18:14:06;;;;;;;;;;;;;;;8.01;82.07;101439.88;5075694;28;19969;-74
2021/03/18 18:16:32;;;;;;;;;;;;;;;8.00;82.17;101440.16;5083773;28;19916;-73
2021/03/18 18:26:29;;;;;;;;;;;;;;;7.86;82.89;101430.53;5025272;28;19924;-75
2021/03/18 18:28:59;;;;;;;;;;;;;;;7.89;81.88;101438.34;5075074;28;19916;-74
2021/03/18 18:31:40;;;;;;;;;;;;;;;;;;;;;
2021/03/18 18:34:09;;;;;;;;;;;;;;;7.86;82.20;101425.84;5099836;28;20376;-74
2021/03/18 18:36:34;;;;;;;;;;;;;;;7.85;82.25;101426.91;5079018;28;19989;-74
2021/03/18 18:39:00;;;;;;;;;;;;;;;7.88;82.05;101425.56;5096896;28;19923;-74
2021/03/18 18:41:26;;;;;;;;;;;;;;;7.83;83.04;101427.19;5077768;28;19920;-75
2021/03/18 18:43:51;;;;;;;;;;;;;;;7.83;82.99;101434.66;5116143;28;19992;-74
2021/03/18 18:46:19;;;;;;;;;;;;;;;7.79;83.51;101433.47;5113713;28;20375;-74
2021/03/18 18:48:45;;;;;;;;;;;;;;;7.81;82.83;101429.38;5094842;28;19920;-74
2021/03/18 18:51:10;;;;;;;;;;;;;;;7.83;82.58;101427.19;5096816;28;20064;-74
2021/03/18 18:53:38;;;;;;;;;;;;;;;7.78;82.73;101423.50;5092851;28;20379;-74
2021/03/18 18:56:06;;;;;;;;;;;;;;;7.75;82.50;101419.31;5091245;28;19916;-74
2021/03/18 18:58:31;;;;;;;;;;;;;;;7.77;83.01;101413.53;5097362;28;19916;-74
2021/03/18 19:00:57;;;;;;;;;;;;;;;7.75;83.46;101418.50;5070820;28;19977;-74
2021/03/18 19:03:22;;;;;;;;;;;;;;;7.68;83.71;101424.16;5095439;28;19968;-74
2021/03/18 19:05:47;;;;;;;;;;;;;;;7.70;83.06;101424.75;5077115;28;19916;-73
2021/03/18 19:08:13;;;;;;;;;;;;;;;7.65;83.69;101418.31;5083365;28;20003;-74
2021/03/18 19:10:59;;;;;;;;;;;;;;;7.66;83.26;101419.97;5076616;28;19919;-74
2021/03/18 19:13:44;;;;;;;;;;;;;;;7.67;82.94;101413.38;5068220;28;20326;-75
2021/03/18 19:16:30;;;;;;;;;;;;;;;7.63;82.94;101401.97;5083347;28;20268;-75
2021/03/18 19:19:14;;;;;;;;;;;;;;;;;;;;;
2021/03/18 19:21:45;;;;;;;;;;;;;;;7.63;82.41;101404.72;5066461;28;19924;-73
2021/03/18 19:24:12;;;;;;;;;;;;;;;7.57;82.92;101386.41;5111406;28;20265;-73
2021/03/18 19:26:37;;;;;;;;;;;;;;;7.54;82.98;101389.66;5076100;28;19998;-73
2021/03/18 19:29:02;;;;;;;;;;;;;;;7.51;82.68;101387.41;5097788;28;19955;-73
2021/03/18 19:31:28;;;;;;;;;;;;;;;7.50;82.71;101388.50;5109516;27;19923;-73
2021/03/18 19:33:53;;;;;;;;;;;;;;;7.53;82.45;101399.06;5115958;27;20279;-74
2021/03/18 19:36:20;;;;;;;;;;;;;;;7.46;82.64;101388.16;5071484;28;19916;-73
2021/03/18 19:38:46;;;;;;;;;;;;;;;7.46;82.62;101384.56;5118691;28;19923;-73
2021/03/18 19:41:12;;;;;;;;;;;;;;;7.46;82.53;101387.31;5097714;28;19916;-73
2021/03/18 19:43:40;;;;;;;;;;;;;;;7.40;82.63;101389.16;5077159;28;19942;-75
2021/03/18 19:46:15;;;;;;;;;;;;;;;7.38;82.54;101394.09;5077233;28;19916;-74
2021/03/18 19:48:40;;;;;;;;;;;;;;;7.35;82.43;101389.94;5047703;28;19920;-75
2021/03/18 19:51:06;;;;;;;;;;;;;;;7.32;82.37;101389.59;5077645;28;19916;-75
2021/03/18 19:53:35;;;;;;;;;;;;;;;7.29;82.30;101385.41;5097675;28;19916;-74
2021/03/18 19:56:10;;;;;;;;;;;;;;;7.23;82.33;101385.56;5051085;28;19917;-75
2021/03/18 19:58:38;;;;;;;;;;;;;;;7.24;82.35;101393.59;5058440;28;19943;-75
2021/03/18 20:01:05;;;;;;;;;;;;;;;7.19;82.35;101389.91;5098112;28;19928;-73
2021/03/18 20:03:30;;;;;;;;;;;;;;;7.15;82.50;101384.88;5076991;28;19920;-74
2021/03/18 20:05:56;;;;;;;;;;;;;;;7.16;82.58;101385.75;5046647;28;19961;-74
2021/03/18 20:08:22;;;;;;;;;;;;;;;7.15;82.38;101392.34;5069395;28;19995;-73
2021/03/18 20:10:47;;;;;;;;;;;;;;;7.13;82.40;101384.31;5049882;28;19917;-73
2021/03/18 20:13:18;;;;;;;;;;;;;;;7.12;82.22;101390.09;5067921;28;19923;-74
2021/03/18 20:15:46;;;;;;;;;;;;;;;7.13;82.29;101389.00;5054050;28;19923;-74
2021/03/18 20:18:19;;;;;;;;;;;;;;;7.10;82.48;101383.97;5066509;28;19923;-74
2021/03/18 20:20:44;;;;;;;;;;;;;;;7.13;82.24;101378.81;5061360;28;19920;-74
2021/03/18 20:23:10;;;;;;;;;;;;;;;7.12;82.14;101387.31;5074764;28;19969;-75
2021/03/18 20:25:36;;;;;;;;;;;;;;;7.13;82.05;101386.22;5062285;28;19951;-75
2021/03/18 20:28:03;;;;;;;;;;;;;;;7.10;82.23;101383.97;5075774;28;19923;-74
2021/03/18 20:30:33;;;;;;;;;;;;;;;7.08;82.54;101378.72;5059263;28;19924;-75
2021/03/18 20:33:01;;;;;;;;;;;;;;;7.08;82.08;101370.41;5062401;28;19919;-75
2021/03/18 20:35:27;;;;;;;;;;;;;;;7.10;82.17;101361.88;5060826;28;20261;-74
2021/03/18 20:37:52;;;;;;;;;;;;;;;7.13;81.89;101372.41;5060802;28;19939;-73
2021/03/18 20:40:18;;;;;;;;;;;;;;;7.16;82.42;101356.19;5067756;28;19920;-75
2021/03/18 20:42:44;;;;;;;;;;;;;;;7.16;82.31;101356.19;5055086;28;19920;-74
2021/03/18 20:45:10;;;;;;;;;;;;;;;7.18;81.98;101352.34;5058183;28;20011;-74
2021/03/18 20:47:38;;;;;;;;;;;;;;;7.18;81.79;101353.16;5116181;27;19927;-75
2021/03/18 20:50:07;;;;;;;;;;;;;;;7.17;81.68;101359.78;5090806;28;19930;-74
2021/03/18 20:52:32;;;;;;;;;;;;;;;7.16;81.83;101363.66;5062663;28;19981;-74
2021/03/18 20:54:58;;;;;;;;;;;;;;;7.15;81.80;101365.56;5081466;28;19920;-74
2021/03/18 20:57:26;;;;;;;;;;;;;;;7.12;81.88;101362.47;5067986;27;19922;-74
2021/03/18 20:59:51;;;;;;;;;;;;;;;7.13;82.19;101364.13;5092367;27;20485;-75
2021/03/18 21:02:19;;;;;;;;;;;;;;;7.13;82.14;101356.69;5100483;28;19959;-74
2021/03/18 21:05:05;;;;;;;;;;;;;;;7.11;82.05;101363.56;5082694;28;20265;-76
2021/03/18 21:07:48;;;;;;;;;;;;;;;7.08;82.24;101364.06;5082054;28;19915;-74
2021/03/18 21:10:13;;;;;;;;;;;;;;;7.10;82.13;101367.38;5117161;27;19923;-74
2021/03/18 21:12:39;;;;;;;;;;;;;;;7.09;83.44;101365.72;5067824;28;19941;-74
2021/03/18 21:15:05;;;;;;;;;;;;;;;7.03;83.97;101364.81;5114933;27;19920;-75
2021/03/18 21:21:19;;;;;;;;;;;;;;;7.09;83.05;101358.28;5093794;28;19920;-75
2021/03/18 21:24:11;;;;;;;;;;;;;;;7.09;83.08;101351.91;5083300;28;19953;-75
2021/03/18 21:27:36;;;;;;;;;;;;;;;7.09;83.18;101349.16;4974363;28;19922;-75
2021/03/18 21:30:34;;;;;;;;;;;;;;;;;;;;;
2021/03/18 21:33:03;;;;;;;;;;;;;;;7.08;82.98;101336.44;4925911;28;19919;-76
2021/03/18 21:35:43;;;;;;;;;;;;;;;7.08;82.88;101337.28;4974978;28;20008;-74
2021/03/18 21:38:40;;;;;;;;;;;;;;;7.10;82.76;101321.28;4990787;28;19916;-75
2021/03/18 21:41:39;;;;;;;;;;;;;;;7.10;82.84;101320.44;4999994;28;19917;-74
2021/03/18 21:44:12;;;;;;;;;;;;;;;7.09;82.88;101316.00;5008121;28;19924;-75
2021/03/18 21:46:40;;;;;;;;;;;;;;;7.09;82.92;101321.53;4998595;28;19917;-75
2021/03/18 21:49:08;;;;;;;;;;;;;;;7.09;82.88;101318.78;4994028;28;19940;-75
2021/03/18 21:51:51;;;;;;;;;;;;;;;7.10;83.03;101317.66;4989872;28;19941;-75
2021/03/18 21:54:30;;;;;;;;;;;;;;;7.10;83.29;101317.66;5007134;28;19920;-75
2021/03/18 21:57:07;;;;;;;;;;;;;;;7.10;83.28;101317.66;5047351;28;19916;-75
2021/03/18 22:00:06;;;;;;;;;;;;;;;7.09;83.34;101310.47;5070776;28;19916;-75
2021/03/18 22:02:38;;;;;;;;;;;;;;;7.10;83.24;101312.16;5079615;28;19916;-75
2021/03/18 22:08:20;;;;;;;;;;;;;;;7.10;84.34;101301.97;5069727;28;19912;-75
2021/03/18 22:11:09;;;;;;;;;;;;;;;7.09;83.80;101294.75;5056902;28;19939;-74
2021/03/18 22:13:59;;;;;;;;;;;;;;;7.09;83.73;101291.16;5078672;28;19974;-75
2021/03/18 22:19:40;;;;;;;;;;;;;;;7.11;83.31;101288.97;5098559;28;19922;-74
2021/03/18 22:25:17;;;;;;;;;;;;;;;7.10;83.71;101281.75;5065313;28;19915;-75
2021/03/18 22:27:58;;;;;;;;;;;;;;;7.10;83.85;101273.47;5051897;28;20311;-75
2021/03/18 22:30:52;;;;;;;;;;;;;;;7.10;83.58;101273.47;5057590;28;19946;-75
2021/03/18 22:33:50;;;;;;;;;;;;;;;7.12;83.78;101277.66;5081423;28;19917;-75
2021/03/18 22:36:31;;;;;;;;;;;;;;;7.12;83.78;101265.78;5082046;28;20007;-75
2021/03/18 22:39:08;;;;;;;;;;;;;;;7.12;83.98;101255.56;5061662;28;20634;-75
2021/03/18 22:41:58;;;;;;;;;;;;;;;7.11;83.82;101253.91;5058782;28;20372;-75
2021/03/18 22:47:12;;;;;;;;;;;;;;;7.11;83.90;101247.53;5095921;28;19916;-75
2021/03/18 22:49:48;;;;;;;;;;;;;;;7.11;83.93;101261.34;5081085;28;20007;-75
2021/03/18 22:53:13;;;;;;;;;;;;;;;7.13;84.03;101239.81;5079845;28;20458;-74
2021/03/18 22:56:05;;;;;;;;;;;;;;;;;;;;;
2021/03/18 22:58:40;;;;;;;;;;;;;;;7.13;84.60;101237.06;5089418;28;19959;-75
2021/03/18 23:01:24;;;;;;;;;;;;;;;7.11;84.34;101237.31;5079722;28;19916;-75
2021/03/18 23:04:12;;;;;;;;;;;;;;;7.12;84.18;101229.88;5066565;28;20370;-75
2021/03/18 23:07:20;;;;;;;;;;;;;;;;;;;;;
2021/03/18 23:10:20;;;;;;;;;;;;;;;7.10;84.30;101219.09;5098916;27;19967;-74
2021/03/18 23:16:30;;;;;;;;;;;;;;;7.08;85.50;101209.38;5089102;28;19958;-75
2021/03/18 23:22:39;;;;;;;;;;;;;;;7.09;85.57;101208.28;5035478;28;19921;-75
2021/03/18 23:25:20;;;;;;;;;;;;;;;7.10;86.06;101202.50;5014988;28;19924;-75
2021/03/18 23:31:02;;;;;;;;;;;;;;;7.09;87.11;101191.72;5022868;28;19972;-75
2021/03/18 23:34:20;;;;;;;;;;;;;;;7.07;86.87;101189.19;5024855;28;20408;-75
2021/03/18 23:36:53;;;;;;;;;;;;;;;7.09;87.08;101194.47;5018048;28;19913;-75
2021/03/18 23:39:37;;;;;;;;;;;;;;;7.08;87.37;101181.75;5006173;28;19917;-75
2021/03/18 23:42:34;;;;;;;;;;;;;;;7.08;87.68;101182.59;5025692;28;19920;-75
2021/03/18 23:48:12;;;;;;;;;;;;;;;7.03;89.10;101163.19;5016536;28;19977;-75
2021/03/18 23:51:03;;;;;;;;;;;;;;;7.05;87.66;101157.38;5035702;28;20453;-75
2021/03/18 23:53:57;;;;;;;;;;;;;;;7.06;88.11;101162.66;4994807;28;19917;-75
2021/03/18 23:56:37;;;;;;;;;;;;;;;7.07;88.63;101157.97;5019421;28;20317;-75
2021/03/18 23:59:12;;;;;;;;;;;;;;;7.06;88.46;101159.06;5085682;28;19916;-75
